Time,TemperatureF,DewpointF,PressureIn,WindDirection,WindDirectionDegrees,WindSpeedMPH,WindSpeedGustMPH,Humidity,HourlyPrecipIn,Conditions,Clouds,dailyrainin,SoftwareType,DateUTC
2013-08-30 00:00:00,69.4,60.8,0.00,SE,146,0.0,0.0,74,0.00,,,0.00,Weather View 32 v70,2013-08-30 04:00:00,
2013-08-30 00:15:00,69.3,60.6,0.00,SE,146,0.0,0.0,74,0.00,,,0.00,Weather View 32 v70,2013-08-30 04:15:00,
2013-08-30 00:30:00,69.1,60.8,0.00,SE,146,0.0,0.0,75,0.00,,,0.00,Weather View 32 v70,2013-08-30 04:30:00,
2013-08-30 00:45:00,69.1,61.5,0.00,SE,146,0.0,0.0,77,0.00,,,0.00,Weather View 32 v70,2013-08-30 04:45:00,
2013-08-30 01:00:00,69.1,61.5,0.00,SE,146,0.0,0.0,77,0.00,,,0.00,Weather View 32 v70,2013-08-30 05:00:00,
2013-08-30 01:15:00,69.3,61.7,0.00,SE,146,0.0,0.0,77,0.00,,,0.00,Weather View 32 v70,2013-08-30 05:15:00,
2013-08-30 01:30:00,69.3,62.1,0.00,SE,146,0.0,0.0,78,0.00,,,0.00,Weather View 32 v70,2013-08-30 05:30:00,
2013-08-30 01:45:00,69.3,62.1,0.00,SE,146,0.0,0.0,78,0.00,,,0.00,Weather View 32 v70,2013-08-30 05:45:00,
2013-08-30 02:00:00,69.1,62.3,0.00,SE,146,0.0,0.0,79,0.00,,,0.00,Weather View 32 v70,2013-08-30 06:00:00,
2013-08-30 02:15:00,69.1,62.6,0.00,SE,146,0.0,0.0,80,0.00,,,0.00,Weather View 32 v70,2013-08-30 06:15:00,
2013-08-30 02:30:00,69.1,62.3,0.00,SE,145,0.0,0.0,79,0.00,,,0.00,Weather View 32 v70,2013-08-30 06:30:00,
2013-08-30 02:45:00,68.9,62.5,0.00,SE,146,0.0,0.0,80,0.00,,,0.00,Weather View 32 v70,2013-08-30 06:45:00,
2013-08-30 03:00:00,68.9,62.5,0.00,WSW,238,0.0,4.0,80,0.00,,,0.00,Weather View 32 v70,2013-08-30 07:00:00,
2013-08-30 03:15:00,68.9,62.1,0.00,SE,127,0.0,4.0,79,0.00,,,0.00,Weather View 32 v70,2013-08-30 07:15:00,
2013-08-30 03:30:00,68.7,62.3,0.00,SE,127,0.0,4.0,80,0.00,,,0.00,Weather View 32 v70,2013-08-30 07:30:00,
2013-08-30 03:45:00,68.7,62.3,0.00,SSE,161,0.0,4.0,80,0.00,,,0.00,Weather View 32 v70,2013-08-30 07:45:00,
2013-08-30 04:00:00,68.7,62.3,0.00,SSE,161,0.0,4.0,80,0.00,,,0.00,Weather View 32 v70,2013-08-30 08:00:00,
2013-08-30 04:15:00,68.5,62.5,0.00,SSE,165,0.0,4.0,81,0.00,,,0.00,Weather View 32 v70,2013-08-30 08:15:00,
2013-08-30 04:30:00,68.5,62.5,0.00,South,169,0.0,4.0,81,0.00,,,0.00,Weather View 32 v70,2013-08-30 08:30:00,
2013-08-30 04:45:00,68.5,62.5,0.00,South,169,0.0,4.0,81,0.00,,,0.00,Weather View 32 v70,2013-08-30 08:45:00,
2013-08-30 05:00:00,68.5,62.8,0.00,SE,139,0.0,4.0,82,0.00,,,0.00,Weather View 32 v70,2013-08-30 09:00:00,
2013-08-30 05:15:00,68.5,62.8,0.00,SE,139,0.0,4.0,82,0.00,,,0.00,Weather View 32 v70,2013-08-30 09:15:00,
2013-08-30 05:30:00,68.5,62.5,0.00,West,265,0.0,4.0,81,0.00,,,0.00,Weather View 32 v70,2013-08-30 09:30:00,
2013-08-30 05:45:00,68.5,62.5,0.00,SSW,210,2.0,4.0,81,0.00,,,0.00,Weather View 32 v70,2013-08-30 09:45:00,
2013-08-30 06:00:00,68.4,62.3,0.00,West,273,0.0,4.0,81,0.00,,,0.00,Weather View 32 v70,2013-08-30 10:00:00,
2013-08-30 06:15:00,68.4,62.3,0.00,West,262,0.0,4.0,81,0.00,,,0.00,Weather View 32 v70,2013-08-30 10:15:00,
2013-08-30 06:30:00,68.4,62.3,0.00,NNW,338,3.0,6.0,81,0.00,,,0.00,Weather View 32 v70,2013-08-30 10:30:00,
2013-08-30 06:45:00,68.4,62.3,0.00,West,271,0.0,6.0,81,0.00,,,0.00,Weather View 32 v70,2013-08-30 10:45:00,
2013-08-30 07:00:00,68.4,62.6,0.00,WSW,242,0.0,6.0,82,0.00,,,0.00,Weather View 32 v70,2013-08-30 11:00:00,
2013-08-30 07:15:00,68.4,62.6,0.00,South,171,0.0,6.0,82,0.00,,,0.00,Weather View 32 v70,2013-08-30 11:15:00,
2013-08-30 07:30:00,68.7,63.0,0.00,SSE,160,0.0,4.0,82,0.00,,,0.00,Weather View 32 v70,2013-08-30 11:30:00,
2013-08-30 07:45:00,69.1,62.6,0.00,WSW,238,0.0,4.0,80,0.00,,,0.00,Weather View 32 v70,2013-08-30 11:45:00,
2013-08-30 08:00:00,69.3,62.8,0.00,West,275,3.0,4.0,80,0.00,,,0.00,Weather View 32 v70,2013-08-30 12:00:00,
2013-08-30 08:15:00,69.3,62.1,0.00,West,273,2.0,5.0,78,0.00,,,0.00,Weather View 32 v70,2013-08-30 12:15:00,
2013-08-30 08:30:00,69.4,61.9,0.00,WSW,250,4.0,5.0,77,0.00,,,0.00,Weather View 32 v70,2013-08-30 12:30:00,
2013-08-30 08:45:00,69.8,61.9,0.00,West,263,3.0,5.0,76,0.00,,,0.00,Weather View 32 v70,2013-08-30 12:45:00,
2013-08-30 09:00:00,71.1,61.1,0.00,WSW,254,4.0,6.0,71,0.00,,,0.00,Weather View 32 v70,2013-08-30 13:00:00,
2013-08-30 09:15:00,71.4,61.1,0.00,SW,216,3.0,10.0,70,0.00,,,0.00,Weather View 32 v70,2013-08-30 13:15:00,
2013-08-30 09:30:00,71.8,60.6,0.00,West,267,4.0,10.0,68,0.00,,,0.00,Weather View 32 v70,2013-08-30 13:30:00,
2013-08-30 09:45:00,72.7,60.2,0.00,WSW,239,3.0,10.0,65,0.00,,,0.00,Weather View 32 v70,2013-08-30 13:45:00,
2013-08-30 10:00:00,72.7,60.2,0.00,West,271,2.0,10.0,65,0.00,,,0.00,Weather View 32 v70,2013-08-30 14:00:00,
2013-08-30 10:15:00,73.0,61.0,0.00,WSW,252,3.0,8.0,66,0.00,,,0.00,Weather View 32 v70,2013-08-30 14:15:00,
2013-08-30 10:30:00,73.9,60.1,0.00,WNW,283,4.0,8.0,62,0.00,,,0.00,Weather View 32 v70,2013-08-30 14:30:00,
2013-08-30 10:45:00,74.8,58.5,0.00,WSW,254,4.0,8.0,57,0.00,,,0.00,Weather View 32 v70,2013-08-30 14:45:00,
2013-08-30 11:00:00,75.0,58.7,0.00,West,265,6.0,10.0,57,0.00,,,0.00,Weather View 32 v70,2013-08-30 15:00:00,
2013-08-30 11:15:00,75.4,58.0,0.00,WSW,250,3.0,10.0,55,0.00,,,0.00,Weather View 32 v70,2013-08-30 15:15:00,
2013-08-30 11:30:00,75.9,60.0,0.00,WSW,243,0.0,10.0,58,0.00,,,0.00,Weather View 32 v70,2013-08-30 15:30:00,
2013-08-30 11:45:00,76.6,59.7,0.00,NW,310,0.0,10.0,56,0.00,,,0.00,Weather View 32 v70,2013-08-30 15:45:00,
2013-08-30 12:00:00,77.4,59.4,0.00,WSW,247,0.0,9.0,54,0.00,,,0.00,Weather View 32 v70,2013-08-30 16:00:00,
2013-08-30 12:15:00,79.2,57.1,0.00,West,273,3.0,6.0,47,0.00,,,0.00,Weather View 32 v70,2013-08-30 16:15:00,
2013-08-30 12:30:00,79.9,56.6,0.00,West,265,3.0,8.0,45,0.00,,,0.00,Weather View 32 v70,2013-08-30 16:30:00,
2013-08-30 12:45:00,79.5,56.9,0.00,West,263,4.0,8.0,46,0.00,,,0.00,Weather View 32 v70,2013-08-30 16:45:00,
2013-08-30 13:00:00,81.0,56.9,0.00,South,177,3.0,8.0,44,0.00,,,0.00,Weather View 32 v70,2013-08-30 17:00:00,
2013-08-30 13:15:00,81.3,53.9,0.00,SE,143,2.0,8.0,39,0.00,,,0.00,Weather View 32 v70,2013-08-30 17:15:00,
2013-08-30 13:30:00,81.9,55.8,0.00,SSW,193,3.0,8.0,41,0.00,,,0.00,Weather View 32 v70,2013-08-30 17:30:00,
2013-08-30 13:45:00,82.0,53.8,0.00,West,271,5.0,8.0,38,0.00,,,0.00,Weather View 32 v70,2013-08-30 17:45:00,
2013-08-30 14:00:00,82.2,54.7,0.00,WNW,294,6.0,8.0,39,0.00,,,0.00,Weather View 32 v70,2013-08-30 18:00:00,
2013-08-30 14:15:00,82.4,53.4,0.00,North,7,3.0,8.0,37,0.00,,,0.00,Weather View 32 v70,2013-08-30 18:15:00,
2013-08-30 14:30:00,82.9,54.6,0.00,WSW,252,0.0,8.0,38,0.00,,,0.00,Weather View 32 v70,2013-08-30 18:30:00,
2013-08-30 14:45:00,83.8,53.9,0.00,South,187,4.0,8.0,36,0.00,,,0.00,Weather View 32 v70,2013-08-30 18:45:00,
2013-08-30 14:50:00,83.8,53.9,0.00,South,187,4.0,8.0,36,0.00,,,0.00,Weather View 32 v70,2013-08-30 18:50:00,
2013-08-30 15:00:00,84.2,52.7,0.00,WNW,287,3.0,8.0,34,0.00,,,0.00,Weather View 32 v70,2013-08-30 19:00:00,
2013-08-30 15:15:00,83.7,53.8,0.00,West,281,0.0,8.0,36,0.00,,,0.00,Weather View 32 v70,2013-08-30 19:15:00,
2013-08-30 15:30:00,84.7,54.7,0.00,SE,133,0.0,6.0,36,0.00,,,0.00,Weather View 32 v70,2013-08-30 19:30:00,
2013-08-30 15:45:00,84.6,54.6,0.00,West,272,4.0,6.0,36,0.00,,,0.00,Weather View 32 v70,2013-08-30 19:45:00,
2013-08-30 15:51:00,84.6,54.6,0.00,West,272,4.0,6.0,36,0.00,,,0.00,Weather View 32 v70,2013-08-30 19:51:00,
2013-08-30 16:00:00,84.4,55.9,0.00,West,264,0.0,6.0,38,0.00,,,0.00,Weather View 32 v70,2013-08-30 20:00:00,
2013-08-30 16:15:00,84.0,55.6,0.00,SSW,212,0.0,6.0,38,0.00,,,0.00,Weather View 32 v70,2013-08-30 20:15:00,
2013-08-30 16:30:00,83.1,55.5,0.00,WSW,254,3.0,6.0,39,0.00,,,0.00,Weather View 32 v70,2013-08-30 20:30:00,
2013-08-30 16:45:00,83.3,56.4,0.00,West,265,0.0,6.0,40,0.00,,,0.00,Weather View 32 v70,2013-08-30 20:45:00,
2013-08-30 16:51:00,83.3,56.4,0.00,West,265,0.0,6.0,40,0.00,,,0.00,Weather View 32 v70,2013-08-30 20:51:00,
2013-08-30 17:00:00,82.8,55.9,0.00,WSW,241,0.0,5.0,40,0.00,,,0.00,Weather View 32 v70,2013-08-30 21:00:00,
2013-08-30 17:15:00,82.8,55.9,0.00,West,261,2.0,5.0,40,0.00,,,0.00,Weather View 32 v70,2013-08-30 21:15:00,
2013-08-30 17:30:00,82.0,57.9,0.00,SSE,166,0.0,5.0,44,0.00,,,0.00,Weather View 32 v70,2013-08-30 21:30:00,
2013-08-30 17:45:00,83.7,58.1,0.00,WSW,252,0.0,6.0,42,0.00,,,0.00,Weather View 32 v70,2013-08-30 21:45:00,
2013-08-30 17:52:00,83.7,58.1,0.00,WSW,252,0.0,6.0,42,0.00,,,0.00,Weather View 32 v70,2013-08-30 21:52:00,
2013-08-30 18:00:00,83.8,58.2,0.00,WSW,243,0.0,6.0,42,0.00,,,0.00,Weather View 32 v70,2013-08-30 22:00:00,
2013-08-30 18:15:00,82.9,57.4,0.00,SSE,147,3.0,6.0,42,0.00,,,0.00,Weather View 32 v70,2013-08-30 22:15:00,
2013-08-30 18:30:00,82.4,58.8,0.00,WSW,257,0.0,6.0,45,0.00,,,0.00,Weather View 32 v70,2013-08-30 22:30:00,
2013-08-30 18:45:00,81.0,59.4,0.00,West,271,0.0,5.0,48,0.00,,,0.00,Weather View 32 v70,2013-08-30 22:45:00,
2013-08-30 18:52:00,81.0,59.4,0.00,West,271,0.0,5.0,48,0.00,,,0.00,Weather View 32 v70,2013-08-30 22:52:00,
2013-08-30 19:00:00,79.5,59.7,0.00,WSW,252,0.0,5.0,51,0.00,,,0.00,Weather View 32 v70,2013-08-30 23:00:00,
2013-08-30 19:15:00,78.6,60.5,0.00,SSW,200,0.0,5.0,54,0.00,,,0.00,Weather View 32 v70,2013-08-30 23:15:00,
2013-08-30 19:30:00,77.7,61.2,0.00,SW,217,3.0,4.0,57,0.00,,,0.00,Weather View 32 v70,2013-08-30 23:30:00,
2013-08-30 19:45:00,77.0,61.5,0.00,South,182,0.0,5.0,59,0.00,,,0.00,Weather View 32 v70,2013-08-30 23:45:00,
2013-08-30 19:53:00,77.0,61.5,0.00,South,182,0.0,5.0,59,0.00,,,0.00,Weather View 32 v70,2013-08-30 23:53:00,
2013-08-30 20:00:00,76.5,62.0,0.00,SSE,164,0.0,5.0,61,0.00,,,0.00,Weather View 32 v70,2013-08-31 00:00:00,
2013-08-30 20:15:00,75.9,61.9,0.00,SSW,200,0.0,5.0,62,0.00,,,0.00,Weather View 32 v70,2013-08-31 00:15:00,
2013-08-30 20:30:00,75.7,62.2,0.00,SSE,154,0.0,5.0,63,0.00,,,0.00,Weather View 32 v70,2013-08-31 00:30:00,
2013-08-30 20:45:00,75.4,62.3,0.00,SSE,157,0.0,4.0,64,0.00,,,0.00,Weather View 32 v70,2013-08-31 00:45:00,
2013-08-30 20:54:00,75.4,62.3,0.00,SSE,157,0.0,4.0,64,0.00,,,0.00,Weather View 32 v70,2013-08-31 00:54:00,
2013-08-30 21:00:00,75.2,62.6,0.00,SSE,157,0.0,0.0,65,0.00,,,0.00,Weather View 32 v70,2013-08-31 01:00:00,
2013-08-30 21:15:00,75.0,62.8,0.00,SSE,165,0.0,3.0,66,0.00,,,0.00,Weather View 32 v70,2013-08-31 01:15:00,
2013-08-30 21:30:00,74.8,63.1,0.00,WSW,237,0.0,3.0,67,0.00,,,0.00,Weather View 32 v70,2013-08-31 01:30:00,
2013-08-30 21:45:00,74.5,63.6,0.00,SE,125,0.0,3.0,69,0.00,,,0.00,Weather View 32 v70,2013-08-31 01:45:00,
2013-08-30 21:54:00,74.5,63.6,0.00,SE,125,0.0,3.0,69,0.00,,,0.00,Weather View 32 v70,2013-08-31 01:54:00,
2013-08-30 22:00:00,74.3,63.8,0.00,SSE,163,0.0,3.0,70,0.00,,,0.00,Weather View 32 v70,2013-08-31 02:00:00,
2013-08-30 22:15:00,74.3,64.3,0.00,South,189,0.0,3.0,71,0.00,,,0.00,Weather View 32 v70,2013-08-31 02:15:00,
2013-08-30 22:30:00,74.3,65.1,0.00,SSW,203,0.0,3.0,73,0.00,,,0.00,Weather View 32 v70,2013-08-31 02:30:00,
2013-08-30 22:45:00,74.3,65.4,0.00,South,181,0.0,4.0,74,0.00,,,0.00,Weather View 32 v70,2013-08-31 02:45:00,
2013-08-30 23:00:00,74.1,65.7,0.00,SSW,199,0.0,4.0,75,0.00,,,0.00,Weather View 32 v70,2013-08-31 03:00:00,
2013-08-30 23:15:00,74.1,66.0,0.00,SW,229,0.0,6.0,76,0.00,,,0.00,Weather View 32 v70,2013-08-31 03:15:00,
2013-08-30 23:30:00,73.9,66.2,0.00,South,179,0.0,6.0,77,0.00,,,0.00,Weather View 32 v70,2013-08-31 03:30:00,
2013-08-30 23:45:00,73.8,66.4,0.00,SSE,157,6.0,6.0,78,0.00,,,0.00,Weather View 32 v70,2013-08-31 03:45:00,